Taneytown, Maryland
Current Conditions -  °F | °C
As of 5:30 PM on Tuesday 21 Oct 2014 (Local Time) from KDMW Reporting Station
Overcast Overcast  
Wind Chill: 61°   Ceiling: 11000
Heat Index: 61°   Visibility: 10mi
Dew Point: 48°   Wind: 3mph
Humidity: 63%   Direction: 10°N
Pressure: 29.83"   Gusts: NA
Location:  39.66°N, 77.17°W
Report Text: KDMW 212130Z AUTO 01003KT 10SM OVC110 16/09 A2983 RMK AO2 LTG DSNT E AND NW
Loading
Personal Weather Stations






























Interactive Weather Map New forecast layout! Learn more

10-Day Weather Forecast

Advertisements
Track Severe Weather on mobile